BAW381 LATI-EGLL
Flight info
| Callsign | BAW381 |
|---|---|
| Flight time | 2h 42m |
| Altitude | 36000 |
| Route | DCT INLOT DCT RETRA DCT GACMO DCT ELTIB DCT DARZA DCT GIMIX DCT UMVEG/N0444F380 DCT KPT DCT VEKIR DCT LIRSU DCT SPI DCT BUB L608 LOGAN DCT |
| Aircraft | A320/M-SDE3FGHIRWXY/S |
Departure
| Time | 2026-04-30 18:49 |
|---|---|
| Airport | Tirana International Airport Mother Teresa (LATI) |
Arrival
| Time | 2026-04-30 21:32 |
|---|---|
| Airport | London Heathrow Airport (EGLL) |
| Time | Latitude | Longitude | Altitude | Speed | Heading |
|---|---|---|---|---|---|
| 2026-04-30 18:16 | 41.42107 | 19.71495 | 115 ft | 0 kts | 265° |
| 2026-04-30 18:37 | 41.42109 | 19.71517 | 117 ft | 4 kts | 251° |
| 2026-04-30 18:38 | 41.42122 | 19.71544 | 113 ft | 4 kts | 207° |
| 2026-04-30 18:38 | 41.42140 | 19.71551 | 114 ft | 1 kts | 177° |
| 2026-04-30 18:38 | 41.42144 | 19.71550 | 114 ft | 0 kts | 177° |
| 2026-04-30 18:45 | 41.40963 | 19.71714 | 122 ft | 24 kts | 172° |
| 2026-04-30 18:45 | 41.40796 | 19.71752 | 123 ft | 25 kts | 170° |
| 2026-04-30 18:45 | 41.40634 | 19.71777 | 126 ft | 20 kts | 174° |
| 2026-04-30 18:46 | 41.40489 | 19.71793 | 124 ft | 20 kts | 174° |
| 2026-04-30 18:46 | 41.40362 | 19.71852 | 125 ft | 20 kts | 144° |
| 2026-04-30 18:46 | 41.40261 | 19.71955 | 130 ft | 16 kts | 132° |
| 2026-04-30 18:46 | 41.40244 | 19.72087 | 130 ft | 10 kts | 84° |
| 2026-04-30 18:47 | 41.40244 | 19.72092 | 130 ft | 0 kts | 84° |
| 2026-04-30 18:47 | 41.40245 | 19.72108 | 128 ft | 8 kts | 84° |
| 2026-04-30 18:47 | 41.40283 | 19.72212 | 128 ft | 14 kts | 24° |
| 2026-04-30 18:48 | 41.40350 | 19.72207 | 124 ft | 10 kts | 358° |
| 2026-04-30 18:48 | 41.40364 | 19.72205 | 126 ft | 0 kts | 354° |
| 2026-04-30 18:48 | 41.40386 | 19.72202 | 127 ft | 22 kts | 354° |
| 2026-04-30 18:48 | 41.40784 | 19.72146 | 126 ft | 90 kts | 354° |
| 2026-04-30 18:49 | 41.41600 | 19.72041 | 118 ft | 142 kts | 354° |
| 2026-04-30 18:49 | 41.42632 | 19.71881 | 539 ft | 147 kts | 352° |
| 2026-04-30 18:49 | 41.43641 | 19.71692 | 1189 ft | 146 kts | 356° |
| 2026-04-30 18:49 | 41.44684 | 19.71561 | 1588 ft | 160 kts | 358° |
| 2026-04-30 18:50 | 41.45860 | 19.71298 | 1847 ft | 184 kts | 347° |
| 2026-04-30 18:50 | 41.47155 | 19.70717 | 2107 ft | 210 kts | 343° |
| 2026-04-30 18:50 | 41.48599 | 19.69991 | 2505 ft | 234 kts | 342° |
| 2026-04-30 18:50 | 41.50189 | 19.69177 | 3058 ft | 253 kts | 341° |
| 2026-04-30 18:51 | 41.51855 | 19.68322 | 3921 ft | 258 kts | 343° |
| 2026-04-30 18:51 | 41.53543 | 19.67461 | 4897 ft | 260 kts | 342° |
| 2026-04-30 18:51 | 41.55239 | 19.66603 | 5836 ft | 262 kts | 343° |
| 2026-04-30 18:51 | 41.56937 | 19.65751 | 6843 ft | 260 kts | 342° |
| 2026-04-30 18:52 | 41.58619 | 19.64912 | 7697 ft | 262 kts | 341° |
| 2026-04-30 18:52 | 41.60349 | 19.64052 | 8528 ft | 265 kts | 341° |
| 2026-04-30 18:52 | 41.62094 | 19.63187 | 9344 ft | 270 kts | 340° |
| 2026-04-30 18:52 | 41.63865 | 19.62310 | 10130 ft | 275 kts | 340° |
| 2026-04-30 18:53 | 41.65713 | 19.61393 | 10498 ft | 294 kts | 340° |
| 2026-04-30 18:53 | 41.67707 | 19.60404 | 10734 ft | 315 kts | 340° |
| 2026-04-30 18:53 | 41.69781 | 19.59378 | 11337 ft | 321 kts | 340° |
| 2026-04-30 18:53 | 41.71899 | 19.58330 | 11937 ft | 327 kts | 340° |
| 2026-04-30 18:54 | 41.74043 | 19.57264 | 12639 ft | 331 kts | 340° |
| 2026-04-30 18:54 | 41.76211 | 19.56183 | 13376 ft | 333 kts | 340° |
| 2026-04-30 18:54 | 41.78384 | 19.55097 | 14100 ft | 335 kts | 339° |
| 2026-04-30 18:54 | 41.80578 | 19.54003 | 14733 ft | 338 kts | 339° |
| 2026-04-30 18:55 | 41.82782 | 19.52902 | 15385 ft | 339 kts | 339° |
| 2026-04-30 18:55 | 41.87262 | 19.50666 | 16531 ft | 347 kts | 338° |
| 2026-04-30 18:55 | 41.89533 | 19.49536 | 17137 ft | 350 kts | 338° |
| 2026-04-30 18:56 | 41.94134 | 19.47238 | 18397 ft | 356 kts | 338° |
| 2026-04-30 18:56 | 41.96459 | 19.46069 | 18952 ft | 359 kts | 338° |
| 2026-04-30 18:56 | 41.98816 | 19.44885 | 19495 ft | 362 kts | 338° |
| 2026-04-30 18:57 | 42.03600 | 19.42591 | 20678 ft | 367 kts | 338° |
| 2026-04-30 18:57 | 42.05997 | 19.41471 | 21235 ft | 370 kts | 338° |
| 2026-04-30 18:57 | 42.08468 | 19.40315 | 21810 ft | 372 kts | 338° |
| 2026-04-30 18:58 | 42.13387 | 19.37997 | 22865 ft | 377 kts | 337° |
| 2026-04-30 18:58 | 42.15870 | 19.36818 | 23385 ft | 379 kts | 337° |
| 2026-04-30 18:58 | 42.18365 | 19.35628 | 23910 ft | 381 kts | 338° |
| 2026-04-30 18:59 | 42.23294 | 19.33060 | 24750 ft | 382 kts | 329° |
| 2026-04-30 19:00 | 42.30120 | 19.27392 | 25928 ft | 387 kts | 325° |
| 2026-04-30 19:00 | 42.32412 | 19.25478 | 26327 ft | 389 kts | 325° |
| 2026-04-30 19:00 | 42.36253 | 19.22266 | 26926 ft | 392 kts | 325° |
| 2026-04-30 19:01 | 42.40913 | 19.18355 | 27666 ft | 398 kts | 325° |
| 2026-04-30 19:01 | 42.43276 | 19.16368 | 27958 ft | 401 kts | 325° |
| 2026-04-30 19:02 | 42.48042 | 19.12357 | 28628 ft | 405 kts | 324° |
| 2026-04-30 19:02 | 42.52853 | 19.08298 | 29321 ft | 409 kts | 324° |
| 2026-04-30 19:03 | 42.57691 | 19.04212 | 30066 ft | 410 kts | 324° |
| 2026-04-30 19:03 | 42.62521 | 19.00125 | 30925 ft | 408 kts | 325° |
| 2026-04-30 19:04 | 42.67347 | 18.96024 | 31618 ft | 409 kts | 325° |
| 2026-04-30 19:04 | 42.72171 | 18.91926 | 32407 ft | 407 kts | 324° |
| 2026-04-30 19:05 | 42.76936 | 18.87871 | 33244 ft | 405 kts | 324° |
| 2026-04-30 19:05 | 42.81699 | 18.83804 | 34112 ft | 403 kts | 324° |
| 2026-04-30 19:06 | 42.86436 | 18.79756 | 34793 ft | 402 kts | 324° |
| 2026-04-30 19:06 | 42.88812 | 18.77720 | 35050 ft | 403 kts | 324° |
| 2026-04-30 19:06 | 42.93569 | 18.73649 | 35623 ft | 404 kts | 324° |
| 2026-04-30 19:07 | 42.98333 | 18.69561 | 36137 ft | 404 kts | 324° |
| 2026-04-30 19:07 | 43.00720 | 18.67504 | 36239 ft | 408 kts | 324° |
| 2026-04-30 19:08 | 43.10462 | 18.59098 | 36265 ft | 417 kts | 325° |
| 2026-04-30 19:09 | 43.17148 | 18.51651 | 36270 ft | 414 kts | 311° |
| 2026-04-30 19:09 | 43.21058 | 18.45934 | 36271 ft | 414 kts | 311° |
| 2026-04-30 19:10 | 43.28936 | 18.34394 | 36271 ft | 414 kts | 311° |
| 2026-04-30 19:11 | 43.34854 | 18.25711 | 36270 ft | 415 kts | 311° |
| 2026-04-30 19:12 | 43.38801 | 18.19906 | 36276 ft | 416 kts | 311° |
| 2026-04-30 19:12 | 43.42744 | 18.14092 | 36271 ft | 416 kts | 311° |
| 2026-04-30 19:13 | 43.50628 | 18.02430 | 36275 ft | 416 kts | 311° |
| 2026-04-30 19:14 | 43.54564 | 17.96586 | 36278 ft | 416 kts | 311° |
| 2026-04-30 19:14 | 43.58489 | 17.90736 | 36305 ft | 416 kts | 311° |
| 2026-04-30 19:15 | 43.62400 | 17.84901 | 36299 ft | 417 kts | 311° |
| 2026-04-30 19:15 | 43.68320 | 17.76065 | 36301 ft | 418 kts | 311° |
| 2026-04-30 19:16 | 43.72266 | 17.70148 | 36306 ft | 418 kts | 311° |
| 2026-04-30 19:17 | 43.78181 | 17.61254 | 36323 ft | 419 kts | 311° |
| 2026-04-30 19:17 | 43.84094 | 17.52350 | 36339 ft | 419 kts | 312° |
| 2026-04-30 19:18 | 43.90009 | 17.43407 | 36339 ft | 420 kts | 312° |
| 2026-04-30 19:19 | 43.93928 | 17.37467 | 36339 ft | 420 kts | 312° |
| 2026-04-30 19:19 | 43.99854 | 17.28464 | 36357 ft | 421 kts | 312° |
| 2026-04-30 19:20 | 44.03804 | 17.22451 | 36346 ft | 421 kts | 312° |
| 2026-04-30 19:21 | 44.09719 | 17.13413 | 36374 ft | 421 kts | 312° |
| 2026-04-30 19:22 | 44.17616 | 17.01305 | 36354 ft | 423 kts | 312° |
| 2026-04-30 19:23 | 44.29446 | 16.83071 | 36357 ft | 422 kts | 312° |
| 2026-04-30 19:24 | 44.35418 | 16.74088 | 36362 ft | 423 kts | 314° |
| 2026-04-30 19:25 | 44.45589 | 16.59184 | 36351 ft | 424 kts | 314° |
| 2026-04-30 19:26 | 44.53675 | 16.47167 | 36353 ft | 424 kts | 314° |
| 2026-04-30 19:27 | 44.59735 | 16.38129 | 36355 ft | 424 kts | 314° |
| 2026-04-30 19:28 | 44.65778 | 16.29095 | 36347 ft | 425 kts | 314° |
| 2026-04-30 19:29 | 44.73870 | 16.16945 | 36354 ft | 426 kts | 314° |
| 2026-04-30 19:30 | 44.81947 | 16.04759 | 36361 ft | 425 kts | 314° |
| 2026-04-30 19:31 | 44.90011 | 15.92527 | 36362 ft | 426 kts | 314° |
| 2026-04-30 19:31 | 44.96037 | 15.83372 | 36346 ft | 426 kts | 314° |
| 2026-04-30 19:32 | 45.00069 | 15.77238 | 36354 ft | 426 kts | 314° |
| 2026-04-30 19:32 | 45.04097 | 15.71079 | 36358 ft | 427 kts | 314° |
| 2026-04-30 19:33 | 45.08130 | 15.64906 | 36359 ft | 427 kts | 314° |
| 2026-04-30 19:33 | 45.12157 | 15.58728 | 36374 ft | 427 kts | 314° |
| 2026-04-30 19:34 | 45.16182 | 15.52529 | 36347 ft | 428 kts | 314° |
| 2026-04-30 19:35 | 45.22196 | 15.43243 | 36365 ft | 428 kts | 314° |
| 2026-04-30 19:35 | 45.26222 | 15.37015 | 36370 ft | 428 kts | 314° |
| 2026-04-30 19:36 | 45.30248 | 15.30770 | 36377 ft | 428 kts | 314° |
| 2026-04-30 19:36 | 45.36286 | 15.21387 | 36385 ft | 429 kts | 314° |
| 2026-04-30 19:37 | 45.40311 | 15.15102 | 36389 ft | 430 kts | 314° |
| 2026-04-30 19:37 | 45.44338 | 15.08801 | 36385 ft | 430 kts | 314° |
| 2026-04-30 19:38 | 45.48363 | 15.02497 | 36382 ft | 430 kts | 314° |
| 2026-04-30 19:38 | 45.52717 | 14.96766 | 36386 ft | 428 kts | 321° |
| 2026-04-30 19:39 | 45.57267 | 14.91189 | 36370 ft | 428 kts | 321° |
| 2026-04-30 19:39 | 45.61753 | 14.85666 | 36384 ft | 429 kts | 322° |
| 2026-04-30 19:40 | 45.66266 | 14.80088 | 36376 ft | 429 kts | 321° |
| 2026-04-30 19:40 | 45.70786 | 14.74496 | 36383 ft | 429 kts | 321° |
| 2026-04-30 19:41 | 45.75308 | 14.68900 | 36381 ft | 430 kts | 321° |
| 2026-04-30 19:41 | 45.79823 | 14.63283 | 36384 ft | 430 kts | 322° |
| 2026-04-30 19:42 | 45.84335 | 14.57648 | 36382 ft | 429 kts | 322° |
| 2026-04-30 19:42 | 45.88836 | 14.52028 | 36388 ft | 429 kts | 322° |
| 2026-04-30 19:43 | 45.93338 | 14.46394 | 36386 ft | 429 kts | 322° |
| 2026-04-30 19:44 | 46.00083 | 14.37917 | 36359 ft | 429 kts | 322° |
| 2026-04-30 19:44 | 46.04571 | 14.32273 | 36379 ft | 429 kts | 322° |
| 2026-04-30 19:45 | 46.09061 | 14.26625 | 36394 ft | 429 kts | 322° |
| 2026-04-30 19:45 | 46.13523 | 14.20990 | 36390 ft | 429 kts | 322° |
| 2026-04-30 19:46 | 46.18009 | 14.15309 | 36384 ft | 429 kts | 322° |
| 2026-04-30 19:46 | 46.22488 | 14.09610 | 36380 ft | 429 kts | 322° |
| 2026-04-30 19:47 | 46.26971 | 14.03906 | 36356 ft | 429 kts | 322° |
| 2026-04-30 19:47 | 46.31446 | 13.98199 | 36354 ft | 429 kts | 322° |
| 2026-04-30 19:48 | 46.35921 | 13.92475 | 36351 ft | 429 kts | 322° |
| 2026-04-30 19:48 | 46.40397 | 13.86737 | 36346 ft | 430 kts | 322° |
| 2026-04-30 19:49 | 46.44877 | 13.80987 | 36345 ft | 430 kts | 322° |
| 2026-04-30 19:49 | 46.51492 | 13.72247 | 36329 ft | 433 kts | 316° |
| 2026-04-30 19:50 | 46.54875 | 13.64828 | 36326 ft | 442 kts | 304° |
| 2026-04-30 19:50 | 46.57889 | 13.57105 | 36348 ft | 442 kts | 304° |
| 2026-04-30 19:51 | 46.60924 | 13.49314 | 36325 ft | 443 kts | 304° |
| 2026-04-30 19:51 | 46.63449 | 13.42822 | 36296 ft | 443 kts | 305° |
| 2026-04-30 19:52 | 46.66481 | 13.34997 | 36311 ft | 444 kts | 305° |
| 2026-04-30 19:52 | 46.69499 | 13.27159 | 36317 ft | 443 kts | 304° |
| 2026-04-30 19:53 | 46.72510 | 13.19322 | 36321 ft | 444 kts | 304° |
| 2026-04-30 19:53 | 46.75529 | 13.11469 | 36321 ft | 444 kts | 304° |
| 2026-04-30 19:54 | 46.78533 | 13.03615 | 36292 ft | 443 kts | 304° |
| 2026-04-30 19:54 | 46.81534 | 12.95741 | 36316 ft | 444 kts | 304° |
| 2026-04-30 19:55 | 46.84535 | 12.87858 | 36322 ft | 444 kts | 304° |
| 2026-04-30 19:55 | 46.87531 | 12.79972 | 36312 ft | 444 kts | 304° |
| 2026-04-30 19:56 | 46.90521 | 12.72072 | 36272 ft | 444 kts | 305° |
| 2026-04-30 19:56 | 46.93511 | 12.64139 | 36273 ft | 445 kts | 305° |
| 2026-04-30 19:57 | 46.96470 | 12.56245 | 36285 ft | 445 kts | 305° |
| 2026-04-30 19:57 | 46.99462 | 12.48283 | 36287 ft | 446 kts | 305° |
| 2026-04-30 19:58 | 47.02445 | 12.40313 | 36288 ft | 447 kts | 305° |
| 2026-04-30 19:58 | 47.05425 | 12.32312 | 36261 ft | 447 kts | 305° |
| 2026-04-30 19:59 | 47.08393 | 12.24313 | 36278 ft | 447 kts | 305° |
| 2026-04-30 20:00 | 47.12852 | 12.12261 | 36294 ft | 447 kts | 305° |
| 2026-04-30 20:00 | 47.15815 | 12.04229 | 36299 ft | 448 kts | 305° |
| 2026-04-30 20:01 | 47.20239 | 11.92197 | 36308 ft | 448 kts | 305° |
| 2026-04-30 20:01 | 47.23180 | 11.84100 | 36309 ft | 449 kts | 304° |
| 2026-04-30 20:02 | 47.27496 | 11.71847 | 36320 ft | 450 kts | 304° |
| 2026-04-30 20:03 | 47.31802 | 11.59566 | 36308 ft | 450 kts | 304° |
| 2026-04-30 20:03 | 47.34772 | 11.51467 | 36317 ft | 443 kts | 313° |
| 2026-04-30 20:04 | 47.36804 | 11.48169 | 36326 ft | 428 kts | 327° |
| 2026-04-30 20:04 | 47.39142 | 11.45490 | 36329 ft | 425 kts | 329° |
| 2026-04-30 20:05 | 47.46210 | 11.37549 | 36324 ft | 426 kts | 329° |
| 2026-04-30 20:05 | 47.53288 | 11.29567 | 36293 ft | 426 kts | 329° |
| 2026-04-30 20:06 | 47.57969 | 11.24274 | 36314 ft | 426 kts | 329° |
| 2026-04-30 20:06 | 47.62676 | 11.18928 | 36330 ft | 426 kts | 329° |
| 2026-04-30 20:07 | 47.67377 | 11.13569 | 36338 ft | 426 kts | 329° |
| 2026-04-30 20:08 | 47.74429 | 11.05519 | 36343 ft | 426 kts | 329° |
| 2026-04-30 20:08 | 47.79119 | 11.00151 | 36318 ft | 426 kts | 329° |
| 2026-04-30 20:09 | 47.83811 | 10.94761 | 36315 ft | 426 kts | 329° |
| 2026-04-30 20:09 | 47.90856 | 10.86649 | 36327 ft | 427 kts | 329° |
| 2026-04-30 20:10 | 47.97916 | 10.78499 | 36336 ft | 428 kts | 329° |
| 2026-04-30 20:11 | 48.04960 | 10.70320 | 36362 ft | 428 kts | 329° |
| 2026-04-30 20:11 | 48.09660 | 10.64845 | 36338 ft | 428 kts | 328° |
| 2026-04-30 20:12 | 48.16722 | 10.56623 | 36346 ft | 429 kts | 328° |
| 2026-04-30 20:13 | 48.21402 | 10.51154 | 36351 ft | 429 kts | 328° |
| 2026-04-30 20:13 | 48.26106 | 10.45649 | 36350 ft | 429 kts | 328° |
| 2026-04-30 20:14 | 48.30818 | 10.40122 | 36357 ft | 429 kts | 328° |
| 2026-04-30 20:14 | 48.35519 | 10.34574 | 36316 ft | 429 kts | 328° |
| 2026-04-30 20:15 | 48.40212 | 10.29024 | 36329 ft | 430 kts | 328° |
| 2026-04-30 20:15 | 48.44887 | 10.23489 | 36331 ft | 430 kts | 328° |
| 2026-04-30 20:16 | 48.49618 | 10.17884 | 36344 ft | 430 kts | 328° |
| 2026-04-30 20:16 | 48.54321 | 10.12287 | 36352 ft | 430 kts | 327° |
| 2026-04-30 20:17 | 48.59017 | 10.06675 | 36343 ft | 430 kts | 327° |
| 2026-04-30 20:17 | 48.63690 | 10.01101 | 36311 ft | 431 kts | 327° |
| 2026-04-30 20:18 | 48.68396 | 9.95475 | 36310 ft | 432 kts | 327° |
| 2026-04-30 20:18 | 48.72842 | 9.89401 | 36313 ft | 440 kts | 315° |
| 2026-04-30 20:19 | 48.76392 | 9.81738 | 36327 ft | 445 kts | 309° |
| 2026-04-30 20:19 | 48.79883 | 9.73973 | 36325 ft | 446 kts | 310° |
| 2026-04-30 20:20 | 48.83376 | 9.66197 | 36334 ft | 446 kts | 309° |
| 2026-04-30 20:20 | 48.86870 | 9.58401 | 36322 ft | 447 kts | 309° |
| 2026-04-30 20:21 | 48.90357 | 9.50568 | 36328 ft | 448 kts | 309° |
| 2026-04-30 20:21 | 48.93841 | 9.42714 | 36336 ft | 448 kts | 309° |
| 2026-04-30 20:22 | 48.97324 | 9.34842 | 36333 ft | 448 kts | 309° |
| 2026-04-30 20:22 | 49.00812 | 9.26961 | 36325 ft | 448 kts | 309° |
| 2026-04-30 20:23 | 49.04289 | 9.19081 | 36314 ft | 449 kts | 308° |
| 2026-04-30 20:23 | 49.07745 | 9.11202 | 36317 ft | 450 kts | 308° |
| 2026-04-30 20:24 | 49.11220 | 9.03264 | 36326 ft | 450 kts | 308° |
| 2026-04-30 20:24 | 49.14693 | 8.95304 | 36332 ft | 451 kts | 308° |
| 2026-04-30 20:25 | 49.19895 | 8.83337 | 36317 ft | 451 kts | 307° |
| 2026-04-30 20:26 | 49.25106 | 8.71298 | 36339 ft | 453 kts | 307° |
| 2026-04-30 20:26 | 49.30315 | 8.59226 | 36356 ft | 453 kts | 307° |
| 2026-04-30 20:27 | 49.37231 | 8.43105 | 36348 ft | 454 kts | 307° |
| 2026-04-30 20:28 | 49.44149 | 8.26872 | 36356 ft | 454 kts | 307° |
| 2026-04-30 20:30 | 49.52761 | 8.06507 | 36340 ft | 453 kts | 306° |
| 2026-04-30 20:31 | 49.63001 | 7.82097 | 36350 ft | 453 kts | 306° |
| 2026-04-30 20:32 | 49.71514 | 7.61651 | 36335 ft | 453 kts | 306° |
| 2026-04-30 20:33 | 49.76604 | 7.49335 | 36350 ft | 453 kts | 305° |
| 2026-04-30 20:34 | 49.81684 | 7.36989 | 36346 ft | 453 kts | 305° |
| 2026-04-30 20:35 | 49.86734 | 7.24657 | 36334 ft | 453 kts | 304° |
| 2026-04-30 20:35 | 49.91789 | 7.12261 | 36332 ft | 454 kts | 304° |
| 2026-04-30 20:36 | 49.95159 | 7.03970 | 36335 ft | 454 kts | 304° |
| 2026-04-30 20:37 | 50.00200 | 6.91495 | 36313 ft | 454 kts | 304° |
| 2026-04-30 20:37 | 50.02991 | 6.84571 | 36316 ft | 454 kts | 304° |
| 2026-04-30 20:38 | 50.06345 | 6.76251 | 36315 ft | 454 kts | 304° |
| 2026-04-30 20:38 | 50.09691 | 6.67909 | 36318 ft | 454 kts | 303° |
| 2026-04-30 20:39 | 50.14696 | 6.55339 | 36313 ft | 454 kts | 303° |
| 2026-04-30 20:40 | 50.19688 | 6.42755 | 36312 ft | 454 kts | 303° |
| 2026-04-30 20:40 | 50.23025 | 6.34444 | 36311 ft | 454 kts | 303° |
| 2026-04-30 20:41 | 50.28058 | 6.21884 | 36314 ft | 455 kts | 303° |
| 2026-04-30 20:41 | 50.31393 | 6.13482 | 36316 ft | 454 kts | 303° |
| 2026-04-30 20:42 | 50.34720 | 6.05059 | 36313 ft | 454 kts | 303° |
| 2026-04-30 20:43 | 50.39712 | 5.92415 | 36303 ft | 455 kts | 302° |
| 2026-04-30 20:43 | 50.43032 | 5.83970 | 36298 ft | 455 kts | 302° |
| 2026-04-30 20:44 | 50.48003 | 5.71281 | 36300 ft | 455 kts | 302° |
| 2026-04-30 20:45 | 50.54527 | 5.54211 | 36299 ft | 456 kts | 300° |
| 2026-04-30 20:45 | 50.57639 | 5.45517 | 36303 ft | 456 kts | 300° |
| 2026-04-30 20:46 | 50.63849 | 5.28171 | 36308 ft | 456 kts | 300° |
| 2026-04-30 20:47 | 50.68541 | 5.15130 | 36306 ft | 456 kts | 300° |
| 2026-04-30 20:48 | 50.73223 | 5.02025 | 36295 ft | 456 kts | 299° |
| 2026-04-30 20:48 | 50.76330 | 4.93286 | 36295 ft | 457 kts | 299° |
| 2026-04-30 20:49 | 50.79437 | 4.84532 | 36286 ft | 457 kts | 299° |
| 2026-04-30 20:50 | 50.84078 | 4.71381 | 36289 ft | 457 kts | 299° |
| 2026-04-30 20:50 | 50.87144 | 4.62649 | 36299 ft | 457 kts | 298° |
| 2026-04-30 20:51 | 50.90221 | 4.53839 | 36299 ft | 457 kts | 299° |
| 2026-04-30 20:51 | 50.95113 | 4.40873 | 36298 ft | 458 kts | 302° |
| 2026-04-30 20:52 | 50.98490 | 4.32301 | 36298 ft | 458 kts | 302° |
| 2026-04-30 20:53 | 51.03466 | 4.19353 | 36301 ft | 458 kts | 301° |
| 2026-04-30 20:53 | 51.06749 | 4.10664 | 36301 ft | 458 kts | 301° |
| 2026-04-30 20:54 | 51.11675 | 3.97602 | 36286 ft | 459 kts | 301° |
| 2026-04-30 20:55 | 51.16570 | 3.84599 | 36281 ft | 458 kts | 301° |
| 2026-04-30 20:55 | 51.19840 | 3.75872 | 36277 ft | 458 kts | 300° |
| 2026-04-30 20:56 | 51.24724 | 3.62783 | 36278 ft | 457 kts | 300° |
| 2026-04-30 20:57 | 51.29587 | 3.49670 | 36269 ft | 458 kts | 300° |
| 2026-04-30 20:57 | 51.32826 | 3.40915 | 36269 ft | 458 kts | 300° |
| 2026-04-30 20:58 | 51.35697 | 3.31852 | 36272 ft | 457 kts | 289° |
| 2026-04-30 20:58 | 51.36815 | 3.27099 | 36270 ft | 457 kts | 289° |
| 2026-04-30 20:58 | 51.39059 | 3.17576 | 36263 ft | 457 kts | 289° |
| 2026-04-30 20:59 | 51.42417 | 3.03365 | 36265 ft | 457 kts | 289° |
| 2026-04-30 21:00 | 51.46884 | 2.84289 | 36266 ft | 457 kts | 289° |
| 2026-04-30 21:01 | 51.50219 | 2.69938 | 36269 ft | 458 kts | 289° |
| 2026-04-30 21:02 | 51.53533 | 2.55564 | 36268 ft | 458 kts | 289° |
| 2026-04-30 21:02 | 51.55730 | 2.45970 | 36255 ft | 458 kts | 288° |
| 2026-04-30 21:03 | 51.57924 | 2.36341 | 36252 ft | 459 kts | 288° |
| 2026-04-30 21:03 | 51.60115 | 2.26718 | 35282 ft | 457 kts | 288° |
| 2026-04-30 21:03 | 51.61226 | 2.21837 | 33463 ft | 471 kts | 288° |
| 2026-04-30 21:04 | 51.62343 | 2.16903 | 31749 ft | 478 kts | 288° |
| 2026-04-30 21:04 | 51.63465 | 2.11934 | 31045 ft | 463 kts | 288° |
| 2026-04-30 21:04 | 51.65602 | 2.02466 | 30100 ft | 445 kts | 288° |
| 2026-04-30 21:05 | 51.66652 | 1.97787 | 29526 ft | 442 kts | 288° |
| 2026-04-30 21:05 | 51.67686 | 1.93159 | 28991 ft | 438 kts | 288° |
| 2026-04-30 21:05 | 51.68713 | 1.88556 | 28426 ft | 435 kts | 288° |
| 2026-04-30 21:05 | 51.69730 | 1.83981 | 27896 ft | 432 kts | 287° |
| 2026-04-30 21:06 | 51.70735 | 1.79444 | 27354 ft | 429 kts | 288° |
| 2026-04-30 21:06 | 51.71731 | 1.74928 | 26826 ft | 427 kts | 287° |
| 2026-04-30 21:06 | 51.72720 | 1.70426 | 26288 ft | 425 kts | 288° |
| 2026-04-30 21:06 | 51.73689 | 1.65940 | 25780 ft | 422 kts | 284° |
| 2026-04-30 21:07 | 51.74306 | 1.61348 | 25278 ft | 417 kts | 275° |
| 2026-04-30 21:07 | 51.74442 | 1.56682 | 24664 ft | 416 kts | 265° |
| 2026-04-30 21:07 | 51.74173 | 1.52034 | 24031 ft | 417 kts | 261° |
| 2026-04-30 21:07 | 51.73864 | 1.47354 | 23333 ft | 418 kts | 262° |
| 2026-04-30 21:08 | 51.73567 | 1.42761 | 22717 ft | 417 kts | 261° |
| 2026-04-30 21:08 | 51.73274 | 1.38168 | 22092 ft | 405 kts | 261° |
| 2026-04-30 21:08 | 51.72988 | 1.33712 | 21495 ft | 395 kts | 261° |
| 2026-04-30 21:08 | 51.72703 | 1.29319 | 20910 ft | 394 kts | 261° |
| 2026-04-30 21:09 | 51.72412 | 1.24915 | 20307 ft | 395 kts | 261° |
| 2026-04-30 21:09 | 51.72118 | 1.20512 | 19722 ft | 395 kts | 261° |
| 2026-04-30 21:09 | 51.71821 | 1.16107 | 19127 ft | 395 kts | 261° |
| 2026-04-30 21:09 | 51.71524 | 1.11732 | 18530 ft | 387 kts | 261° |
| 2026-04-30 21:10 | 51.71241 | 1.07501 | 17905 ft | 373 kts | 261° |
| 2026-04-30 21:10 | 51.70961 | 1.03370 | 17358 ft | 369 kts | 261° |
| 2026-04-30 21:10 | 51.70679 | 0.99273 | 16807 ft | 366 kts | 261° |
| 2026-04-30 21:10 | 51.70397 | 0.95195 | 16267 ft | 367 kts | 261° |
| 2026-04-30 21:11 | 51.70115 | 0.91116 | 15681 ft | 366 kts | 261° |
| 2026-04-30 21:11 | 51.69834 | 0.87046 | 15110 ft | 365 kts | 261° |
| 2026-04-30 21:11 | 51.69557 | 0.83028 | 14551 ft | 355 kts | 261° |
| 2026-04-30 21:11 | 51.69282 | 0.79091 | 14011 ft | 355 kts | 260° |
| 2026-04-30 21:12 | 51.68999 | 0.75131 | 13411 ft | 354 kts | 260° |
| 2026-04-30 21:12 | 51.68724 | 0.71253 | 12877 ft | 348 kts | 260° |
| 2026-04-30 21:12 | 51.68450 | 0.67384 | 12336 ft | 347 kts | 260° |
| 2026-04-30 21:12 | 51.68175 | 0.63528 | 11795 ft | 344 kts | 260° |
| 2026-04-30 21:13 | 51.67903 | 0.59751 | 11276 ft | 336 kts | 260° |
| 2026-04-30 21:13 | 51.67641 | 0.56113 | 10957 ft | 317 kts | 259° |
| 2026-04-30 21:13 | 51.67393 | 0.52658 | 10645 ft | 303 kts | 259° |
| 2026-04-30 21:13 | 51.67151 | 0.49330 | 10418 ft | 303 kts | 259° |
| 2026-04-30 21:14 | 51.66907 | 0.45985 | 10186 ft | 299 kts | 259° |
| 2026-04-30 21:14 | 51.66663 | 0.42669 | 10050 ft | 298 kts | 259° |
| 2026-04-30 21:14 | 51.66416 | 0.39350 | 9642 ft | 297 kts | 259° |
| 2026-04-30 21:14 | 51.66174 | 0.36074 | 9193 ft | 293 kts | 260° |
| 2026-04-30 21:15 | 51.65932 | 0.32824 | 8736 ft | 291 kts | 260° |
| 2026-04-30 21:15 | 51.65692 | 0.29603 | 8291 ft | 288 kts | 260° |
| 2026-04-30 21:15 | 51.65452 | 0.26414 | 7838 ft | 286 kts | 260° |
| 2026-04-30 21:15 | 51.65210 | 0.23249 | 7396 ft | 282 kts | 260° |
| 2026-04-30 21:16 | 51.64981 | 0.20203 | 7209 ft | 264 kts | 261° |
| 2026-04-30 21:16 | 51.64770 | 0.17353 | 7216 ft | 252 kts | 260° |
| 2026-04-30 21:16 | 51.64562 | 0.14566 | 7221 ft | 250 kts | 261° |
| 2026-04-30 21:16 | 51.64386 | 0.11782 | 7220 ft | 250 kts | 262° |
| 2026-04-30 21:17 | 51.64234 | 0.08988 | 7220 ft | 250 kts | 262° |
| 2026-04-30 21:17 | 51.64092 | 0.06211 | 7088 ft | 248 kts | 262° |
| 2026-04-30 21:17 | 51.63950 | 0.03452 | 6786 ft | 248 kts | 263° |
| 2026-04-30 21:17 | 51.63826 | 0.01116 | 6558 ft | 246 kts | 262° |
| 2026-04-30 21:18 | 51.63736 | -0.00531 | 6424 ft | 246 kts | 262° |
| 2026-04-30 21:18 | 51.63568 | -0.03544 | 6123 ft | 243 kts | 262° |
| 2026-04-30 21:18 | 51.63408 | -0.06243 | 6036 ft | 242 kts | 261° |
| 2026-04-30 21:18 | 51.63241 | -0.08952 | 6053 ft | 243 kts | 261° |
| 2026-04-30 21:19 | 51.63075 | -0.11669 | 6058 ft | 244 kts | 261° |
| 2026-04-30 21:19 | 51.62907 | -0.14383 | 6063 ft | 243 kts | 261° |
| 2026-04-30 21:19 | 51.62740 | -0.17092 | 6060 ft | 244 kts | 261° |
| 2026-04-30 21:19 | 51.62574 | -0.19811 | 6066 ft | 244 kts | 261° |
| 2026-04-30 21:20 | 51.62406 | -0.22522 | 6061 ft | 244 kts | 261° |
| 2026-04-30 21:20 | 51.62240 | -0.25214 | 6070 ft | 244 kts | 261° |
| 2026-04-30 21:20 | 51.62070 | -0.27929 | 6067 ft | 244 kts | 261° |
| 2026-04-30 21:20 | 51.61900 | -0.30643 | 6067 ft | 244 kts | 261° |
| 2026-04-30 21:21 | 51.61729 | -0.33361 | 6009 ft | 244 kts | 261° |
| 2026-04-30 21:21 | 51.61556 | -0.36074 | 6011 ft | 244 kts | 261° |
| 2026-04-30 21:21 | 51.61213 | -0.41508 | 6011 ft | 244 kts | 261° |
| 2026-04-30 21:22 | 51.61043 | -0.44222 | 6018 ft | 244 kts | 261° |
| 2026-04-30 21:22 | 51.59736 | -0.51904 | 5708 ft | 231 kts | 246° |
| 2026-04-30 21:23 | 51.59177 | -0.54307 | 5472 ft | 228 kts | 246° |
| 2026-04-30 21:23 | 51.58632 | -0.56663 | 5235 ft | 226 kts | 246° |
| 2026-04-30 21:23 | 51.57554 | -0.61370 | 4722 ft | 224 kts | 246° |
| 2026-04-30 21:24 | 51.57030 | -0.63722 | 4470 ft | 223 kts | 246° |
| 2026-04-30 21:24 | 51.56513 | -0.66070 | 4216 ft | 223 kts | 246° |
| 2026-04-30 21:24 | 51.56005 | -0.68421 | 4040 ft | 223 kts | 246° |
| 2026-04-30 21:24 | 51.55506 | -0.70776 | 3965 ft | 221 kts | 246° |
| 2026-04-30 21:25 | 51.54515 | -0.75469 | 3355 ft | 220 kts | 238° |
| 2026-04-30 21:25 | 51.53578 | -0.77183 | 3203 ft | 195 kts | 202° |
| 2026-04-30 21:25 | 51.52365 | -0.77742 | 3127 ft | 177 kts | 184° |
| 2026-04-30 21:26 | 51.50001 | -0.78080 | 2988 ft | 166 kts | 168° |
| 2026-04-30 21:26 | 51.49038 | -0.77182 | 3004 ft | 165 kts | 134° |
| 2026-04-30 21:27 | 51.47771 | -0.74093 | 3002 ft | 169 kts | 115° |
| 2026-04-30 21:27 | 51.47621 | -0.72256 | 2923 ft | 164 kts | 96° |
| 2026-04-30 21:27 | 51.47631 | -0.71048 | 2817 ft | 158 kts | 96° |
| 2026-04-30 21:28 | 51.47655 | -0.67634 | 2454 ft | 152 kts | 96° |
| 2026-04-30 21:28 | 51.47664 | -0.65948 | 2250 ft | 150 kts | 97° |
| 2026-04-30 21:28 | 51.47683 | -0.62627 | 1853 ft | 147 kts | 97° |
| 2026-04-30 21:29 | 51.47691 | -0.60996 | 1654 ft | 146 kts | 96° |
| 2026-04-30 21:29 | 51.47715 | -0.56156 | 1066 ft | 134 kts | 92° |
| 2026-04-30 21:30 | 51.47735 | -0.53249 | 633 ft | 128 kts | 91° |
| 2026-04-30 21:31 | 51.47762 | -0.48977 | 189 ft | 127 kts | 88° |
| 2026-04-30 21:31 | 51.47760 | -0.46600 | 89 ft | 64 kts | 88° |
| 2026-04-30 21:32 | 51.47633 | -0.46073 | 90 ft | 13 kts | 174° |
| 2026-04-30 21:32 | 51.47591 | -0.46192 | 86 ft | 14 kts | 268° |
| 2026-04-30 21:32 | 51.47594 | -0.46359 | 88 ft | 10 kts | 270° |
| 2026-04-30 21:32 | 51.47593 | -0.46491 | 86 ft | 14 kts | 268° |
| 2026-04-30 21:33 | 51.47588 | -0.46660 | 86 ft | 17 kts | 269° |
| 2026-04-30 21:33 | 51.47579 | -0.46981 | 88 ft | 14 kts | 272° |
| 2026-04-30 21:33 | 51.47582 | -0.47158 | 90 ft | 17 kts | 270° |
| 2026-04-30 21:34 | 51.47580 | -0.47372 | 90 ft | 21 kts | 269° |
| 2026-04-30 21:34 | 51.47577 | -0.47888 | 87 ft | 20 kts | 268° |
| 2026-04-30 21:34 | 51.47578 | -0.48083 | 86 ft | 18 kts | 271° |
| 2026-04-30 21:35 | 51.47575 | -0.48297 | 88 ft | 18 kts | 256° |
| 2026-04-30 21:35 | 51.47485 | -0.48391 | 88 ft | 13 kts | 187° |
| 2026-04-30 21:35 | 51.47394 | -0.48356 | 89 ft | 15 kts | 179° |
| 2026-04-30 21:35 | 51.47282 | -0.48383 | 89 ft | 13 kts | 216° |
| 2026-04-30 21:36 | 51.47314 | -0.48467 | 86 ft | 11 kts | 340° |
| 2026-04-30 21:36 | 51.47403 | -0.48476 | 86 ft | 15 kts | 359° |
| 2026-04-30 21:37 | 51.47443 | -0.48776 | 87 ft | 8 kts | 181° |
| 2026-04-30 21:37 | 51.47406 | -0.48758 | 86 ft | 4 kts | 176° |
| 2026-04-30 21:37 | 51.47399 | -0.48758 | 86 ft | 0 kts | 178° |